Qishan — V3NY6 — position and weather

sailwx.info

Track history (hours):
 
Tides and Currents Weather Stations Pressure Air Temp Water Temp Dewpoint Dewpoint Depression Visibility Wind Speed Wind Dir Waves Ship Positions

Qishan

Last reported at 2017-Oct-17 15:44 UTC. Time now 2017-Oct-19 16:25 UTC.
Position N 30°59' E 122°32'.

Length 100 m; draft 6.2 m.

Type: Cargo ship. MMSI: 312445000.

Date/timePositionNaut miles runAvg speedWind from/ knotsBaromVisibWave heightAir tempDewpointWater temp
2017-Oct-17 15:44N 30°59' E 122°32'2 9.7
2017-Oct-17 15:29N 30°60' E 122°30'6 9.8
2017-Oct-17 14:55N 31°01' E 122°23'4 9.8
2017-Oct-17 14:30N 31°02' E 122°19'5 9.7
2017-Oct-17 14:00N 31°03' E 122°13'4 8.6
2017-Oct-17 13:30N 31°03' E 122°08'4 7.7
2017-Oct-17 13:00N 31°04' E 122°04'4 8.1
2017-Oct-17 12:30N 31°05' E 121°59'3 6.3
2017-Oct-17 12:00N 31°07' E 121°56'4 8.3
2017-Oct-17 11:30N 31°09' E 121°52'5 9.9
2017-Oct-17 11:00N 31°13' E 121°48'611.1
2017-Oct-17 10:30N 31°17' E 121°44'5 9.3
2017-Oct-17 10:00N 31°20' E 121°40'5 9.4
2017-Oct-17 09:30N 31°23' E 121°36'0 0.9
2017-Oct-17 08:58N 31°24' E 121°36'0 0.0
2017-Oct-17 08:28N 31°24' E 121°36'0 0.0
2017-Oct-17 07:58N 31°24' E 121°36'0 0.0
2017-Oct-17 07:28N 31°24' E 121°36'0 0.0
2017-Oct-17 06:58N 31°24' E 121°36'0 0.0
2017-Oct-17 06:28N 31°24' E 121°36'0 0.0
2017-Oct-17 05:58N 31°24' E 121°36'0 0.0
2017-Oct-17 05:28N 31°23' E 121°36'0 0.1
2017-Oct-17 04:58N 31°23' E 121°36'0 0.1
2017-Oct-17 04:28N 31°23' E 121°36'0 0.1
2017-Oct-17 03:58N 31°23' E 121°36'0 0.1
2017-Oct-17 03:28N 31°24' E 121°36'0 0.0
2017-Oct-17 02:58N 31°24' E 121°36'0 0.0
2017-Oct-17 02:28N 31°24' E 121°36'0 0.0
2017-Oct-17 01:58N 31°24' E 121°36'0 0.1
2017-Oct-17 01:25N 31°24' E 121°36'0 0.0
2017-Oct-17 00:49N 31°24' E 121°36'0 0.0
2017-Oct-17 00:28N 31°24' E 121°36'0 0.1
2017-Oct-16 23:58N 31°24' E 121°36'0 0.2
2017-Oct-16 23:28N 31°23' E 121°36'0 0.0
2017-Oct-16 22:58N 31°24' E 121°36'0 0.0
2017-Oct-16 22:28N 31°24' E 121°36'0 0.0
2017-Oct-16 21:55N 31°24' E 121°36'0 0.0
2017-Oct-16 21:28N 31°24' E 121°36'0 0.0
2017-Oct-16 20:58N 31°24' E 121°36'0 0.0
2017-Oct-16 20:28N 31°24' E 121°36'0 0.0
2017-Oct-16 19:58N 31°24' E 121°36'0 0.0
2017-Oct-16 19:28N 31°24' E 121°36'0 0.0
2017-Oct-16 18:58N 31°24' E 121°36'0 0.0
2017-Oct-16 18:28N 31°24' E 121°36'0 0.0
2017-Oct-16 17:58N 31°24' E 121°36'0 0.0
2017-Oct-16 17:28N 31°24' E 121°36'0 0.0
2017-Oct-16 16:58N 31°24' E 121°36'0 0.1
2017-Oct-16 16:28N 31°23' E 121°36'0 0.1
2017-Oct-16 15:58N 31°23' E 121°36'0 0.1
2017-Oct-16 15:28N 31°24' E 121°36'0 0.1
2017-Oct-16 14:58N 31°24' E 121°36'0 0.0
2017-Oct-16 14:28N 31°24' E 121°36'0 0.0
2017-Oct-16 13:28N 31°24' E 121°36'0 0.0
2017-Oct-16 12:58N 31°24' E 121°36'0 0.0
2017-Oct-16 12:28N 31°24' E 121°36'0 0.0
2017-Oct-16 11:58N 31°24' E 121°36'0 0.1
2017-Oct-16 11:28N 31°24' E 121°36'0 0.1
2017-Oct-16 10:58N 31°23' E 121°36'0 0.2
2017-Oct-16 10:28N 31°23' E 121°36'0 0.0
2017-Oct-16 09:58N 31°24' E 121°36'0 0.0
2017-Oct-16 09:28N 31°24' E 121°36'0 0.0
2017-Oct-16 08:58N 31°24' E 121°36'0 0.0
2017-Oct-16 08:28N 31°24' E 121°36'0 0.0
2017-Oct-16 07:58N 31°23' E 121°36'0 0.1
2017-Oct-16 07:28N 31°23' E 121°36'0 0.0
2017-Oct-16 06:58N 31°23' E 121°36'0 0.0
2017-Oct-16 06:28N 31°23' E 121°36'0 0.0
2017-Oct-16 05:58N 31°23' E 121°36'0 0.0
2017-Oct-16 05:28N 31°23' E 121°36'0 0.0
2017-Oct-16 04:58N 31°23' E 121°36'0 0.1
2017-Oct-16 04:28N 31°23' E 121°36'0 0.2
2017-Oct-16 03:58N 31°23' E 121°36'0 0.0
2017-Oct-16 03:28N 31°23' E 121°36'0 0.1
2017-Oct-16 02:58N 31°23' E 121°36'0 0.0
2017-Oct-16 02:28N 31°24' E 121°36'0 0.0
2017-Oct-16 01:58N 31°24' E 121°36'0 0.0
2017-Oct-16 01:28N 31°24' E 121°36'0 0.0
2017-Oct-16 00:58N 31°24' E 121°36'0 0.0
2017-Oct-16 00:25N 31°24' E 121°36'0 0.1
2017-Oct-15 23:58N 31°24' E 121°36'0 0.1
2017-Oct-15 23:28N 31°23' E 121°36'0 0.1
2017-Oct-15 22:58N 31°23' E 121°36'0 0.2
2017-Oct-15 22:28N 31°23' E 121°36'0 0.1
2017-Oct-15 21:58N 31°23' E 121°36'0 0.0
2017-Oct-15 21:28N 31°24' E 121°36'0 0.0
2017-Oct-15 20:58N 31°24' E 121°36'0 0.0
2017-Oct-15 20:28N 31°24' E 121°36'0 0.0
2017-Oct-15 19:58N 31°24' E 121°36'0 0.0
2017-Oct-15 19:28N 31°23' E 121°36'0 0.0
2017-Oct-15 18:58N 31°23' E 121°36'0 0.0
2017-Oct-15 18:28N 31°24' E 121°36'0 0.0
2017-Oct-15 17:58N 31°24' E 121°36'0 0.0
2017-Oct-15 17:28N 31°24' E 121°36'0 0.0
2017-Oct-15 16:58N 31°23' E 121°36'0 0.0
2017-Oct-15 16:25N 31°23' E 121°36'0 0.1
2017-Oct-15 15:58N 31°23' E 121°36'0 0.1
2017-Oct-15 15:28N 31°23' E 121°36'0 0.1
2017-Oct-15 14:58N 31°23' E 121°36'0 0.1
2017-Oct-15 13:58N 31°23' E 121°36'0 0.1
2017-Oct-15 13:28N 31°24' E 121°36'0 0.0
2017-Oct-15 12:58N 31°24' E 121°36'0 0.0
2017-Oct-15 12:28N 31°24' E 121°36'0 0.0
2017-Oct-15 11:58N 31°24' E 121°36'0 0.0
2017-Oct-15 11:28N 31°24' E 121°36'0 0.0
2017-Oct-15 10:58N 31°24' E 121°36'0 0.1
2017-Oct-15 10:28N 31°23' E 121°36'0 0.1
2017-Oct-15 09:58N 31°23' E 121°36'0 0.2
2017-Oct-15 09:25N 31°23' E 121°36'0 0.1
2017-Oct-15 08:58N 31°23' E 121°36'0 0.0
2017-Oct-15 08:28N 31°23' E 121°36'0 0.0
2017-Oct-15 07:58N 31°23' E 121°36'0 0.0
2017-Oct-15 07:28N 31°23' E 121°36'0 0.0
2017-Oct-15 06:58N 31°23' E 121°36'0 0.0
2017-Oct-15 06:28N 31°23' E 121°36'0 0.0
2017-Oct-15 05:58N 31°23' E 121°36'0 0.0
2017-Oct-15 05:28N 31°23' E 121°36'0 0.0
2017-Oct-15 04:58N 31°23' E 121°36'0 0.0
2017-Oct-15 04:28N 31°23' E 121°36'0 0.1
2017-Oct-15 03:58N 31°23' E 121°36'0 0.2
2017-Oct-15 03:28N 31°23' E 121°36'0 0.0
2017-Oct-15 02:58N 31°23' E 121°36'0 0.1
2017-Oct-15 02:25N 31°23' E 121°36'0 0.0
2017-Oct-15 01:58N 31°23' E 121°36'0 0.0
2017-Oct-15 01:28N 31°24' E 121°36'0 0.0
2017-Oct-15 00:58N 31°24' E 121°36'0 0.0
2017-Oct-15 00:28N 31°24' E 121°36'0 0.0
2017-Oct-14 23:58N 31°24' E 121°36'0 0.0
2017-Oct-14 23:28N 31°24' E 121°36'0 0.1
2017-Oct-14 22:58N 31°24' E 121°36'0 0.0
2017-Oct-14 22:28N 31°23' E 121°36'0 0.1
2017-Oct-14 21:58N 31°23' E 121°36'0 0.1
2017-Oct-14 21:28N 31°23' E 121°36'0 0.2
2017-Oct-14 20:58N 31°24' E 121°36'0 0.0
2017-Oct-14 20:28N 31°24' E 121°36'0 0.0
2017-Oct-14 19:58N 31°24' E 121°36'0 0.0
2017-Oct-14 19:28N 31°24' E 121°36'0 0.0
2017-Oct-14 18:58N 31°24' E 121°36'0 0.0
2017-Oct-14 18:28N 31°24' E 121°36'0 0.0
2017-Oct-14 17:58N 31°24' E 121°36'0 0.0
2017-Oct-14 17:28N 31°24' E 121°36'0 0.0
2017-Oct-14 16:58N 31°24' E 121°36'0 0.0
2017-Oct-14 16:28N 31°24' E 121°36'0 0.0
2017-Oct-14 15:58N 31°24' E 121°36'0 0.0
2017-Oct-14 15:28N 31°24' E 121°36'0 0.1
2017-Oct-14 14:58N 31°23' E 121°36'0 0.1
2017-Oct-14 14:28N 31°23' E 121°36'0 0.1
2017-Oct-14 13:58N 31°23' E 121°36'0 0.0
2017-Oct-14 13:28N 31°23' E 121°36'0 0.0
2017-Oct-14 12:58N 31°24' E 121°36'0 0.0
2017-Oct-14 12:28N 31°24' E 121°36'0 0.0
2017-Oct-14 11:58N 31°24' E 121°36'0 0.0
2017-Oct-14 11:28N 31°24' E 121°36'0 0.0
2017-Oct-14 10:58N 31°24' E 121°36'0 0.0
2017-Oct-14 10:28N 31°24' E 121°36'0 0.0
2017-Oct-14 09:58N 31°24' E 121°36'0 0.0
2017-Oct-14 09:28N 31°24' E 121°36'0 0.1
2017-Oct-14 09:01N 31°23' E 121°36'0 0.1
2017-Oct-14 08:28N 31°23' E 121°36'0 0.1
2017-Oct-14 07:58N 31°23' E 121°36'0 0.1
2017-Oct-14 07:28N 31°23' E 121°36'0 0.0
2017-Oct-14 06:58N 31°23' E 121°36'0 0.0
2017-Oct-14 06:31N 31°24' E 121°36'0 0.0
2017-Oct-14 05:58N 31°24' E 121°36'0 0.0
2017-Oct-14 05:31N 31°24' E 121°36'0 0.0
2017-Oct-14 05:01N 31°24' E 121°36'0 0.0
2017-Oct-14 04:25N 31°24' E 121°36'0 0.0
2017-Oct-14 03:58N 31°23' E 121°36'1 1.6
2017-Oct-14 03:30N 31°23' E 121°35'4 8.5
2017-Oct-14 03:00N 31°25' E 121°31'2 4.3
2017-Oct-14 02:30N 31°26' E 121°29'0 0.0
2017-Oct-14 02:00N 31°26' E 121°29'0 0.0
2017-Oct-14 01:30N 31°26' E 121°29'0 0.0
2017-Oct-14 01:00N 31°26' E 121°29'0 0.0
2017-Oct-14 00:30N 31°26' E 121°29'0 0.0
2017-Oct-14 00:00N 31°26' E 121°29'0 0.0
2017-Oct-13 23:30N 31°26' E 121°29'0 0.0
2017-Oct-13 23:00N 31°26' E 121°29'0 0.0
2017-Oct-13 22:30N 31°26' E 121°29'0 0.0
2017-Oct-13 22:00N 31°26' E 121°29'0 0.0
2017-Oct-13 21:30N 31°26' E 121°29'0 0.0
2017-Oct-13 21:00N 31°26' E 121°29'0 0.0
2017-Oct-13 20:30N 31°26' E 121°29'0 0.0
2017-Oct-13 20:00N 31°26' E 121°29'0 0.0
2017-Oct-13 19:30N 31°26' E 121°29'0 0.0
2017-Oct-13 19:00N 31°26' E 121°29'0 0.0
2017-Oct-13 18:30N 31°26' E 121°29'0 0.0
2017-Oct-13 18:00N 31°26' E 121°29'0 0.0
2017-Oct-13 17:30N 31°26' E 121°29'0 0.0
2017-Oct-13 17:00N 31°26' E 121°29'0 0.0
2017-Oct-13 16:30N 31°26' E 121°29'0 0.0
2017-Oct-13 16:00N 31°26' E 121°29'0 0.0
2017-Oct-13 15:30N 31°26' E 121°29'0 0.0
2017-Oct-13 15:00N 31°26' E 121°29'0 0.0
2017-Oct-13 14:30N 31°26' E 121°29'0 0.0
2017-Oct-13 14:00N 31°26' E 121°29'0 0.0
2017-Oct-13 13:24N 31°26' E 121°29'0 0.0
2017-Oct-13 13:00N 31°26' E 121°29'0 0.0
2017-Oct-13 12:30N 31°26' E 121°29'0 0.0
2017-Oct-13 12:00N 31°26' E 121°29'0 0.0
2017-Oct-13 11:30N 31°26' E 121°29'0 0.0
2017-Oct-13 11:00N 31°26' E 121°29'0 0.0
2017-Oct-13 10:30N 31°26' E 121°29'0 0.0
2017-Oct-13 10:00N 31°26' E 121°29'0 0.0
2017-Oct-13 09:30N 31°26' E 121°29'0 0.0
2017-Oct-13 09:00N 31°26' E 121°29'0 0.0
2017-Oct-13 08:30N 31°26' E 121°29'0 0.0
2017-Oct-13 08:00N 31°26' E 121°29'0 0.0
2017-Oct-13 07:30N 31°26' E 121°29'0 0.0
2017-Oct-13 07:00N 31°26' E 121°29'0 0.0
2017-Oct-13 06:27N 31°26' E 121°29'0 0.0
2017-Oct-13 06:00N 31°26' E 121°29'0 0.0
2017-Oct-13 05:30N 31°26' E 121°29'0 0.0
2017-Oct-13 05:00N 31°26' E 121°29'0 0.0
2017-Oct-13 04:21N 31°26' E 121°29'0 0.0
2017-Oct-13 04:00N 31°26' E 121°29'0 0.0
2017-Oct-13 03:30N 31°26' E 121°29'0 0.0
2017-Oct-13 03:00N 31°26' E 121°29'0 0.0
2017-Oct-13 02:30N 31°26' E 121°29'0 0.0
2017-Oct-13 02:00N 31°26' E 121°29'0 0.0
2017-Oct-13 01:30N 31°26' E 121°29'0 0.0
2017-Oct-13 00:54N 31°26' E 121°29'0 0.0
2017-Oct-13 00:30N 31°26' E 121°29'0 0.0
2017-Oct-13 00:00N 31°26' E 121°29'0 0.0
2017-Oct-12 23:27N 31°26' E 121°29'0 1.1
2017-Oct-12 23:00N 31°25' E 121°29'3 6.3
2017-Oct-12 22:31N 31°24' E 121°32'510.8
2017-Oct-12 22:00N 31°22' E 121°38'4 7.9
2017-Oct-12 21:31N 31°20' E 121°42'610.9
2017-Oct-12 21:00N 31°15' E 121°46'612.3
2017-Oct-12 20:30N 31°11' E 121°51'612.1
2017-Oct-12 20:01N 31°07' E 121°56'510.3
2017-Oct-12 19:30N 31°05' E 122°02'4 8.6
2017-Oct-12 19:01N 31°04' E 122°06'610.9
2017-Oct-12 18:30N 31°03' E 122°13'  
Track history (hours):
 
Tides and Currents Weather Stations Pressure Air Temp Water Temp Dewpoint Dewpoint Depression Visibility Wind Speed Wind Dir Waves Ship Positions

Qishan

Last reported at 2017-Oct-17 15:44 UTC. Time now 2017-Oct-19 16:25 UTC.
Position N 30°59' E 122°32'.

Length 100 m; draft 6.2 m.

Type: Cargo ship. MMSI: 312445000.

Date/timePositionNaut miles runAvg speedWind from/ knotsBaromVisibWave heightAir tempDewpointWater temp
2017-Oct-17 15:44N 30°59' E 122°32'2 9.7
2017-Oct-17 15:29N 30°60' E 122°30'6 9.8
2017-Oct-17 14:55N 31°01' E 122°23'4 9.8
2017-Oct-17 14:30N 31°02' E 122°19'5 9.7
2017-Oct-17 14:00N 31°03' E 122°13'4 8.6
2017-Oct-17 13:30N 31°03' E 122°08'4 7.7
2017-Oct-17 13:00N 31°04' E 122°04'4 8.1
2017-Oct-17 12:30N 31°05' E 121°59'3 6.3
2017-Oct-17 12:00N 31°07' E 121°56'4 8.3
2017-Oct-17 11:30N 31°09' E 121°52'5 9.9
2017-Oct-17 11:00N 31°13' E 121°48'611.1
2017-Oct-17 10:30N 31°17' E 121°44'5 9.3
2017-Oct-17 10:00N 31°20' E 121°40'5 9.4
2017-Oct-17 09:30N 31°23' E 121°36'0 0.9
2017-Oct-17 08:58N 31°24' E 121°36'0 0.0
2017-Oct-17 08:28N 31°24' E 121°36'0 0.0
2017-Oct-17 07:58N 31°24' E 121°36'0 0.0
2017-Oct-17 07:28N 31°24' E 121°36'0 0.0
2017-Oct-17 06:58N 31°24' E 121°36'0 0.0
2017-Oct-17 06:28N 31°24' E 121°36'0 0.0
2017-Oct-17 05:58N 31°24' E 121°36'0 0.0
2017-Oct-17 05:28N 31°23' E 121°36'0 0.1
2017-Oct-17 04:58N 31°23' E 121°36'0 0.1
2017-Oct-17 04:28N 31°23' E 121°36'0 0.1
2017-Oct-17 03:58N 31°23' E 121°36'0 0.1
2017-Oct-17 03:28N 31°24' E 121°36'0 0.0
2017-Oct-17 02:58N 31°24' E 121°36'0 0.0
2017-Oct-17 02:28N 31°24' E 121°36'0 0.0
2017-Oct-17 01:58N 31°24' E 121°36'0 0.1
2017-Oct-17 01:25N 31°24' E 121°36'0 0.0
2017-Oct-17 00:49N 31°24' E 121°36'0 0.0
2017-Oct-17 00:28N 31°24' E 121°36'0 0.1
2017-Oct-16 23:58N 31°24' E 121°36'0 0.2
2017-Oct-16 23:28N 31°23' E 121°36'0 0.0
2017-Oct-16 22:58N 31°24' E 121°36'0 0.0
2017-Oct-16 22:28N 31°24' E 121°36'0 0.0
2017-Oct-16 21:55N 31°24' E 121°36'0 0.0
2017-Oct-16 21:28N 31°24' E 121°36'0 0.0
2017-Oct-16 20:58N 31°24' E 121°36'0 0.0
2017-Oct-16 20:28N 31°24' E 121°36'0 0.0
2017-Oct-16 19:58N 31°24' E 121°36'0 0.0
2017-Oct-16 19:28N 31°24' E 121°36'0 0.0
2017-Oct-16 18:58N 31°24' E 121°36'0 0.0
2017-Oct-16 18:28N 31°24' E 121°36'0 0.0
2017-Oct-16 17:58N 31°24' E 121°36'0 0.0
2017-Oct-16 17:28N 31°24' E 121°36'0 0.0
2017-Oct-16 16:58N 31°24' E 121°36'0 0.1
2017-Oct-16 16:28N 31°23' E 121°36'0 0.1
2017-Oct-16 15:58N 31°23' E 121°36'0 0.1
2017-Oct-16 15:28N 31°24' E 121°36'0 0.1
2017-Oct-16 14:58N 31°24' E 121°36'0 0.0
2017-Oct-16 14:28N 31°24' E 121°36'0 0.0
2017-Oct-16 13:28N 31°24' E 121°36'0 0.0
2017-Oct-16 12:58N 31°24' E 121°36'0 0.0
2017-Oct-16 12:28N 31°24' E 121°36'0 0.0
2017-Oct-16 11:58N 31°24' E 121°36'0 0.1
2017-Oct-16 11:28N 31°24' E 121°36'0 0.1
2017-Oct-16 10:58N 31°23' E 121°36'0 0.2
2017-Oct-16 10:28N 31°23' E 121°36'0 0.0
2017-Oct-16 09:58N 31°24' E 121°36'0 0.0
2017-Oct-16 09:28N 31°24' E 121°36'0 0.0
2017-Oct-16 08:58N 31°24' E 121°36'0 0.0
2017-Oct-16 08:28N 31°24' E 121°36'0 0.0
2017-Oct-16 07:58N 31°23' E 121°36'0 0.1
2017-Oct-16 07:28N 31°23' E 121°36'0 0.0
2017-Oct-16 06:58N 31°23' E 121°36'0 0.0
2017-Oct-16 06:28N 31°23' E 121°36'0 0.0
2017-Oct-16 05:58N 31°23' E 121°36'0 0.0
2017-Oct-16 05:28N 31°23' E 121°36'0 0.0
2017-Oct-16 04:58N 31°23' E 121°36'0 0.1
2017-Oct-16 04:28N 31°23' E 121°36'0 0.2
2017-Oct-16 03:58N 31°23' E 121°36'0 0.0
2017-Oct-16 03:28N 31°23' E 121°36'0 0.1
2017-Oct-16 02:58N 31°23' E 121°36'0 0.0
2017-Oct-16 02:28N 31°24' E 121°36'0 0.0
2017-Oct-16 01:58N 31°24' E 121°36'0 0.0
2017-Oct-16 01:28N 31°24' E 121°36'0 0.0
2017-Oct-16 00:58N 31°24' E 121°36'0 0.0
2017-Oct-16 00:25N 31°24' E 121°36'0 0.1
2017-Oct-15 23:58N 31°24' E 121°36'0 0.1
2017-Oct-15 23:28N 31°23' E 121°36'0 0.1
2017-Oct-15 22:58N 31°23' E 121°36'0 0.2
2017-Oct-15 22:28N 31°23' E 121°36'0 0.1
2017-Oct-15 21:58N 31°23' E 121°36'0 0.0
2017-Oct-15 21:28N 31°24' E 121°36'0 0.0
2017-Oct-15 20:58N 31°24' E 121°36'0 0.0
2017-Oct-15 20:28N 31°24' E 121°36'0 0.0
2017-Oct-15 19:58N 31°24' E 121°36'0 0.0
2017-Oct-15 19:28N 31°23' E 121°36'0 0.0
2017-Oct-15 18:58N 31°23' E 121°36'0 0.0
2017-Oct-15 18:28N 31°24' E 121°36'0 0.0
2017-Oct-15 17:58N 31°24' E 121°36'0 0.0
2017-Oct-15 17:28N 31°24' E 121°36'0 0.0
2017-Oct-15 16:58N 31°23' E 121°36'0 0.0
2017-Oct-15 16:25N 31°23' E 121°36'0 0.1
2017-Oct-15 15:58N 31°23' E 121°36'0 0.1
2017-Oct-15 15:28N 31°23' E 121°36'0 0.1
2017-Oct-15 14:58N 31°23' E 121°36'0 0.1
2017-Oct-15 13:58N 31°23' E 121°36'0 0.1
2017-Oct-15 13:28N 31°24' E 121°36'0 0.0
2017-Oct-15 12:58N 31°24' E 121°36'0 0.0
2017-Oct-15 12:28N 31°24' E 121°36'0 0.0
2017-Oct-15 11:58N 31°24' E 121°36'0 0.0
2017-Oct-15 11:28N 31°24' E 121°36'0 0.0
2017-Oct-15 10:58N 31°24' E 121°36'0 0.1
2017-Oct-15 10:28N 31°23' E 121°36'0 0.1
2017-Oct-15 09:58N 31°23' E 121°36'0 0.2
2017-Oct-15 09:25N 31°23' E 121°36'0 0.1
2017-Oct-15 08:58N 31°23' E 121°36'0 0.0
2017-Oct-15 08:28N 31°23' E 121°36'0 0.0
2017-Oct-15 07:58N 31°23' E 121°36'0 0.0
2017-Oct-15 07:28N 31°23' E 121°36'0 0.0
2017-Oct-15 06:58N 31°23' E 121°36'0 0.0
2017-Oct-15 06:28N 31°23' E 121°36'0 0.0
2017-Oct-15 05:58N 31°23' E 121°36'0 0.0
2017-Oct-15 05:28N 31°23' E 121°36'0 0.0
2017-Oct-15 04:58N 31°23' E 121°36'0 0.0
2017-Oct-15 04:28N 31°23' E 121°36'0 0.1
2017-Oct-15 03:58N 31°23' E 121°36'0 0.2
2017-Oct-15 03:28N 31°23' E 121°36'0 0.0
2017-Oct-15 02:58N 31°23' E 121°36'0 0.1
2017-Oct-15 02:25N 31°23' E 121°36'0 0.0
2017-Oct-15 01:58N 31°23' E 121°36'0 0.0
2017-Oct-15 01:28N 31°24' E 121°36'0 0.0
2017-Oct-15 00:58N 31°24' E 121°36'0 0.0
2017-Oct-15 00:28N 31°24' E 121°36'0 0.0
2017-Oct-14 23:58N 31°24' E 121°36'0 0.0
2017-Oct-14 23:28N 31°24' E 121°36'0 0.1
2017-Oct-14 22:58N 31°24' E 121°36'0 0.0
2017-Oct-14 22:28N 31°23' E 121°36'0 0.1
2017-Oct-14 21:58N 31°23' E 121°36'0 0.1
2017-Oct-14 21:28N 31°23' E 121°36'0 0.2
2017-Oct-14 20:58N 31°24' E 121°36'0 0.0
2017-Oct-14 20:28N 31°24' E 121°36'0 0.0
2017-Oct-14 19:58N 31°24' E 121°36'0 0.0
2017-Oct-14 19:28N 31°24' E 121°36'0 0.0
2017-Oct-14 18:58N 31°24' E 121°36'0 0.0
2017-Oct-14 18:28N 31°24' E 121°36'0 0.0
2017-Oct-14 17:58N 31°24' E 121°36'0 0.0
2017-Oct-14 17:28N 31°24' E 121°36'0 0.0
2017-Oct-14 16:58N 31°24' E 121°36'0 0.0
2017-Oct-14 16:28N 31°24' E 121°36'0 0.0
2017-Oct-14 15:58N 31°24' E 121°36'0 0.0
2017-Oct-14 15:28N 31°24' E 121°36'0 0.1
2017-Oct-14 14:58N 31°23' E 121°36'0 0.1
2017-Oct-14 14:28N 31°23' E 121°36'0 0.1
2017-Oct-14 13:58N 31°23' E 121°36'0 0.0
2017-Oct-14 13:28N 31°23' E 121°36'0 0.0
2017-Oct-14 12:58N 31°24' E 121°36'0 0.0
2017-Oct-14 12:28N 31°24' E 121°36'0 0.0
2017-Oct-14 11:58N 31°24' E 121°36'0 0.0
2017-Oct-14 11:28N 31°24' E 121°36'0 0.0
2017-Oct-14 10:58N 31°24' E 121°36'0 0.0
2017-Oct-14 10:28N 31°24' E 121°36'0 0.0
2017-Oct-14 09:58N 31°24' E 121°36'0 0.0
2017-Oct-14 09:28N 31°24' E 121°36'0 0.1
2017-Oct-14 09:01N 31°23' E 121°36'0 0.1
2017-Oct-14 08:28N 31°23' E 121°36'0 0.1
2017-Oct-14 07:58N 31°23' E 121°36'0 0.1
2017-Oct-14 07:28N 31°23' E 121°36'0 0.0
2017-Oct-14 06:58N 31°23' E 121°36'0 0.0
2017-Oct-14 06:31N 31°24' E 121°36'0 0.0
2017-Oct-14 05:58N 31°24' E 121°36'0 0.0
2017-Oct-14 05:31N 31°24' E 121°36'0 0.0
2017-Oct-14 05:01N 31°24' E 121°36'0 0.0
2017-Oct-14 04:25N 31°24' E 121°36'0 0.0
2017-Oct-14 03:58N 31°23' E 121°36'1 1.6
2017-Oct-14 03:30N 31°23' E 121°35'4 8.5
2017-Oct-14 03:00N 31°25' E 121°31'2 4.3
2017-Oct-14 02:30N 31°26' E 121°29'0 0.0
2017-Oct-14 02:00N 31°26' E 121°29'0 0.0
2017-Oct-14 01:30N 31°26' E 121°29'0 0.0
2017-Oct-14 01:00N 31°26' E 121°29'0 0.0
2017-Oct-14 00:30N 31°26' E 121°29'0 0.0
2017-Oct-14 00:00N 31°26' E 121°29'0 0.0
2017-Oct-13 23:30N 31°26' E 121°29'0 0.0
2017-Oct-13 23:00N 31°26' E 121°29'0 0.0
2017-Oct-13 22:30N 31°26' E 121°29'0 0.0
2017-Oct-13 22:00N 31°26' E 121°29'0 0.0
2017-Oct-13 21:30N 31°26' E 121°29'0 0.0
2017-Oct-13 21:00N 31°26' E 121°29'0 0.0
2017-Oct-13 20:30N 31°26' E 121°29'0 0.0
2017-Oct-13 20:00N 31°26' E 121°29'0 0.0
2017-Oct-13 19:30N 31°26' E 121°29'0 0.0
2017-Oct-13 19:00N 31°26' E 121°29'0 0.0
2017-Oct-13 18:30N 31°26' E 121°29'0 0.0
2017-Oct-13 18:00N 31°26' E 121°29'0 0.0
2017-Oct-13 17:30N 31°26' E 121°29'0 0.0
2017-Oct-13 17:00N 31°26' E 121°29'0 0.0
2017-Oct-13 16:30N 31°26' E 121°29'0 0.0
2017-Oct-13 16:00N 31°26' E 121°29'0 0.0
2017-Oct-13 15:30N 31°26' E 121°29'0 0.0
2017-Oct-13 15:00N 31°26' E 121°29'0 0.0
2017-Oct-13 14:30N 31°26' E 121°29'0 0.0
2017-Oct-13 14:00N 31°26' E 121°29'0 0.0
2017-Oct-13 13:24N 31°26' E 121°29'0 0.0
2017-Oct-13 13:00N 31°26' E 121°29'0 0.0
2017-Oct-13 12:30N 31°26' E 121°29'0 0.0
2017-Oct-13 12:00N 31°26' E 121°29'0 0.0
2017-Oct-13 11:30N 31°26' E 121°29'0 0.0
2017-Oct-13 11:00N 31°26' E 121°29'0 0.0
2017-Oct-13 10:30N 31°26' E 121°29'0 0.0
2017-Oct-13 10:00N 31°26' E 121°29'0 0.0
2017-Oct-13 09:30N 31°26' E 121°29'0 0.0
2017-Oct-13 09:00N 31°26' E 121°29'0 0.0
2017-Oct-13 08:30N 31°26' E 121°29'0 0.0
2017-Oct-13 08:00N 31°26' E 121°29'0 0.0
2017-Oct-13 07:30N 31°26' E 121°29'0 0.0
2017-Oct-13 07:00N 31°26' E 121°29'0 0.0
2017-Oct-13 06:27N 31°26' E 121°29'0 0.0
2017-Oct-13 06:00N 31°26' E 121°29'0 0.0
2017-Oct-13 05:30N 31°26' E 121°29'0 0.0
2017-Oct-13 05:00N 31°26' E 121°29'0 0.0
2017-Oct-13 04:21N 31°26' E 121°29'0 0.0
2017-Oct-13 04:00N 31°26' E 121°29'0 0.0
2017-Oct-13 03:30N 31°26' E 121°29'0 0.0
2017-Oct-13 03:00N 31°26' E 121°29'0 0.0
2017-Oct-13 02:30N 31°26' E 121°29'0 0.0
2017-Oct-13 02:00N 31°26' E 121°29'0 0.0
2017-Oct-13 01:30N 31°26' E 121°29'0 0.0
2017-Oct-13 00:54N 31°26' E 121°29'0 0.0
2017-Oct-13 00:30N 31°26' E 121°29'0 0.0
2017-Oct-13 00:00N 31°26' E 121°29'0 0.0
2017-Oct-12 23:27N 31°26' E 121°29'0 1.1
2017-Oct-12 23:00N 31°25' E 121°29'3 6.3
2017-Oct-12 22:31N 31°24' E 121°32'510.8
2017-Oct-12 22:00N 31°22' E 121°38'4 7.9
2017-Oct-12 21:31N 31°20' E 121°42'610.9
2017-Oct-12 21:00N 31°15' E 121°46'612.3
2017-Oct-12 20:30N 31°11' E 121°51'612.1
2017-Oct-12 20:01N 31°07' E 121°56'510.3
2017-Oct-12 19:30N 31°05' E 122°02'4 8.6
2017-Oct-12 19:01N 31°04' E 122°06'610.9
2017-Oct-12 18:30N 31°03' E 122°13'  

Dump ship's entire track history